createdAt,value
2019-05-21T00:02:00.621Z,10.70
2019-05-21T00:04:29.473Z,10.80
2019-05-21T00:06:58.258Z,10.70
2019-05-21T00:09:27.060Z,10.70
2019-05-21T00:11:55.868Z,10.70
2019-05-21T00:14:25.009Z,10.70
2019-05-21T00:16:53.810Z,10.70
2019-05-21T00:19:22.583Z,10.70
2019-05-21T00:21:51.318Z,10.60
2019-05-21T00:24:20.186Z,10.60
2019-05-21T00:26:49.003Z,10.60
2019-05-21T00:29:54.426Z,10.50
2019-05-21T00:33:01.582Z,10.50
2019-05-21T00:36:07.025Z,10.50
2019-05-21T00:39:12.375Z,10.50
2019-05-21T00:42:02.418Z,10.50
2019-05-21T00:44:37.268Z,10.50
2019-05-21T00:47:07.733Z,10.60
2019-05-21T00:49:36.468Z,10.50
2019-05-21T00:52:08.600Z,10.50
2019-05-21T00:54:37.267Z,10.60
2019-05-21T00:57:09.027Z,10.60
2019-05-21T00:59:38.253Z,10.60
2019-05-21T01:02:07.217Z,10.60
2019-05-21T01:04:36.317Z,10.60
2019-05-21T01:07:05.521Z,10.60
2019-05-21T01:09:34.418Z,10.60
2019-05-21T01:12:03.215Z,10.70
2019-05-21T01:14:32.063Z,10.70
2019-05-21T01:17:00.889Z,10.70
2019-05-21T01:19:29.581Z,10.70
2019-05-21T01:21:58.366Z,10.80
2019-05-21T01:24:27.170Z,10.80
2019-05-21T01:26:57.540Z,10.80
2019-05-21T01:29:26.339Z,10.80
2019-05-21T01:31:55.204Z,10.80
2019-05-21T01:34:24.011Z,10.80
2019-05-21T01:36:52.887Z,10.80
2019-05-21T01:39:21.792Z,10.80
2019-05-21T01:41:51.140Z,10.80
2019-05-21T01:44:19.979Z,10.80
2019-05-21T01:46:48.737Z,10.90
2019-05-21T01:49:17.592Z,10.90
2019-05-21T01:51:46.325Z,10.90
2019-05-21T01:54:15.117Z,10.90
2019-05-21T01:56:44.409Z,11.00
2019-05-21T01:59:13.211Z,11.00
2019-05-21T02:01:42.394Z,10.90
2019-05-21T02:04:11.248Z,10.90
2019-05-21T02:06:40.398Z,10.90
2019-05-21T02:09:09.607Z,10.90
2019-05-21T02:11:38.432Z,10.80
2019-05-21T02:14:07.258Z,10.80
2019-05-21T02:16:36.005Z,10.70
2019-05-21T02:19:04.947Z,10.60
2019-05-21T02:21:33.798Z,10.60
2019-05-21T02:24:02.607Z,10.50
2019-05-21T02:26:31.326Z,10.40
2019-05-21T02:29:00.123Z,10.40
2019-05-21T02:31:31.668Z,10.30
2019-05-21T02:34:00.505Z,10.30
2019-05-21T02:36:29.334Z,10.20
2019-05-21T02:38:58.134Z,10.10
2019-05-21T02:41:26.892Z,10.10
2019-05-21T02:43:55.690Z,10.00
2019-05-21T02:46:24.490Z,10.10
2019-05-21T02:48:53.538Z,10.10
2019-05-21T02:51:22.557Z,10.10
2019-05-21T02:53:51.279Z,10.00
2019-05-21T02:56:20.026Z,10.00
2019-05-21T02:58:48.823Z,10.00
2019-05-21T03:01:19.223Z,10.00
2019-05-21T03:03:48.329Z,10.00
2019-05-21T03:06:17.138Z,10.00
2019-05-21T03:08:45.901Z,10.00
2019-05-21T03:11:14.618Z,10.00
2019-05-21T03:13:43.347Z,9.90
2019-05-21T03:16:12.205Z,9.90
2019-05-21T03:18:40.994Z,9.90
2019-05-21T03:21:09.779Z,9.90
2019-05-21T03:23:38.598Z,9.90
2019-05-21T03:26:07.625Z,9.80
2019-05-21T03:28:36.815Z,9.80
2019-05-21T03:31:05.940Z,9.70
2019-05-21T03:33:35.589Z,9.70
2019-05-21T03:36:04.418Z,9.70
2019-05-21T03:38:33.202Z,9.60
2019-05-21T03:41:02.010Z,9.50
2019-05-21T03:43:30.765Z,9.50
2019-05-21T03:45:59.582Z,9.40
2019-05-21T03:48:29.223Z,9.40
2019-05-21T03:50:57.978Z,9.30
2019-05-21T03:53:26.723Z,9.30
2019-05-21T03:55:55.491Z,9.30
2019-05-21T03:58:24.604Z,9.30
2019-05-21T04:00:53.364Z,9.20
2019-05-21T04:03:22.385Z,9.20
2019-05-21T04:05:51.194Z,9.20
2019-05-21T04:08:20.390Z,9.20
2019-05-21T04:10:49.222Z,9.10
2019-05-21T04:13:18.019Z,9.10
2019-05-21T04:15:54.262Z,9.20
2019-05-21T04:18:24.667Z,9.10
2019-05-21T04:20:55.408Z,9.10
2019-05-21T04:23:24.197Z,9.10
2019-05-21T04:25:59.255Z,9.20
2019-05-21T04:28:30.171Z,9.20
2019-05-21T04:31:03.466Z,9.20
2019-05-21T04:33:32.968Z,9.30
2019-05-21T04:36:14.242Z,9.30
2019-05-21T04:38:48.086Z,9.30
2019-05-21T04:41:18.763Z,9.30
2019-05-21T04:43:54.521Z,9.30
2019-05-21T04:46:25.878Z,9.30
2019-05-21T04:48:55.547Z,9.30
2019-05-21T04:51:28.316Z,9.20
2019-05-21T04:53:58.513Z,9.20
2019-05-21T04:56:32.544Z,9.20
2019-05-21T04:59:03.237Z,9.20
2019-05-21T05:01:35.664Z,9.20
2019-05-21T05:04:07.574Z,9.20
2019-05-21T05:06:39.960Z,9.20
2019-05-21T05:09:10.787Z,9.20
2019-05-21T05:11:40.767Z,9.20
2019-05-21T05:14:15.865Z,9.20
2019-05-21T05:16:48.013Z,9.20
2019-05-21T05:19:18.834Z,9.20
2019-05-21T05:21:54.584Z,9.20
2019-05-21T05:24:36.872Z,9.20
2019-05-21T05:27:04.790Z,9.20
2019-05-21T05:29:36.965Z,9.20
2019-05-21T05:32:06.732Z,9.30
2019-05-21T05:34:38.221Z,9.30
2019-05-21T05:37:08.876Z,9.30
2019-05-21T05:39:40.913Z,9.30
2019-05-21T05:42:14.788Z,9.30
2019-05-21T05:44:47.187Z,9.30
2019-05-21T05:47:19.509Z,9.30
2019-05-21T05:49:52.003Z,9.40
2019-05-21T05:52:25.192Z,9.40
2019-05-21T05:54:59.297Z,9.50
2019-05-21T05:57:29.915Z,9.50
2019-05-21T06:00:02.699Z,9.50
2019-05-21T06:02:32.757Z,9.60
2019-05-21T06:05:03.318Z,9.60
2019-05-21T06:07:36.020Z,9.60
2019-05-21T06:10:07.369Z,9.80
2019-05-21T06:12:38.661Z,9.70
2019-05-21T06:15:13.233Z,9.60
2019-05-21T06:17:45.054Z,9.60
2019-05-21T06:20:17.002Z,9.70
2019-05-21T06:22:46.558Z,9.80
2019-05-21T06:25:17.417Z,9.80
2019-05-21T06:27:48.112Z,9.90
2019-05-21T06:30:20.597Z,9.90
2019-05-21T06:32:51.750Z,9.90
2019-05-21T06:35:22.041Z,9.90
2019-05-21T06:37:50.825Z,9.90
2019-05-21T06:40:24.147Z,9.90
2019-05-21T06:42:53.842Z,10.00
2019-05-21T06:45:26.806Z,10.00
2019-05-21T06:47:57.786Z,10.00
2019-05-21T06:50:32.161Z,10.00
2019-05-21T06:53:01.800Z,10.10
2019-05-21T06:55:31.566Z,10.10
2019-05-21T06:58:04.355Z,10.10
2019-05-21T07:00:37.011Z,10.00
2019-05-21T07:03:07.766Z,10.10
2019-05-21T07:05:57.554Z,10.10
2019-05-21T07:08:14.125Z,10.20
2019-05-21T07:10:43.552Z,10.20
2019-05-21T07:13:12.484Z,10.20
2019-05-21T07:15:42.944Z,10.10
2019-05-21T07:18:13.293Z,10.10
2019-05-21T07:20:42.258Z,10.10
2019-05-21T07:23:18.012Z,10.10
2019-05-21T07:25:50.236Z,10.10
2019-05-21T07:28:23.466Z,10.00
2019-05-21T07:30:52.290Z,10.10
2019-05-21T07:33:26.218Z,10.10
2019-05-21T07:35:58.511Z,10.10
2019-05-21T07:38:52.646Z,10.20
2019-05-21T07:41:11.571Z,10.10
2019-05-21T07:43:43.248Z,10.20
2019-05-21T07:46:13.761Z,10.10
2019-05-21T07:48:44.331Z,10.10
2019-05-21T07:51:19.576Z,10.10
2019-05-21T07:53:50.765Z,10.20
2019-05-21T07:56:23.425Z,10.30
2019-05-21T07:58:53.088Z,10.30
2019-05-21T08:01:23.859Z,10.40
2019-05-21T08:03:58.689Z,10.50
2019-05-21T08:06:49.140Z,10.50
2019-05-21T08:09:18.201Z,10.50
2019-05-21T08:11:48.758Z,10.40
2019-05-21T08:14:19.018Z,10.40
2019-05-21T08:16:49.973Z,10.50
2019-05-21T08:19:22.651Z,10.50
2019-05-21T08:21:55.006Z,10.50
2019-05-21T08:24:26.246Z,10.60
2019-05-21T08:26:56.599Z,10.60
2019-05-21T08:29:27.706Z,10.60
2019-05-21T08:31:58.410Z,10.70
2019-05-21T08:34:28.598Z,10.60
2019-05-21T08:37:02.170Z,10.70
2019-05-21T08:39:35.805Z,10.70
2019-05-21T08:42:07.149Z,10.60
2019-05-21T08:44:36.119Z,10.70
2019-05-21T08:47:07.718Z,10.70
2019-05-21T08:49:44.082Z,10.70
2019-05-21T08:52:15.909Z,10.70
2019-05-21T08:54:49.335Z,10.70
2019-05-21T08:57:20.389Z,10.60
2019-05-21T08:59:50.320Z,10.60
2019-05-21T09:02:20.798Z,10.60
2019-05-21T09:04:53.808Z,10.70
2019-05-21T09:07:24.339Z,10.80
2019-05-21T09:09:57.762Z,10.80
2019-05-21T09:12:29.265Z,10.80
2019-05-21T09:15:01.515Z,10.70
2019-05-21T09:17:31.419Z,10.60
2019-05-21T09:20:04.338Z,10.60
2019-05-21T09:22:37.454Z,10.70
2019-05-21T09:25:09.572Z,10.80
2019-05-21T09:27:40.905Z,10.90
2019-05-21T09:30:14.104Z,11.00
2019-05-21T09:32:43.341Z,11.00
2019-05-21T09:35:13.406Z,11.10
2019-05-21T09:37:45.944Z,11.00
2019-05-21T09:40:19.231Z,11.00
2019-05-21T09:42:50.706Z,11.00
2019-05-21T09:45:21.582Z,11.10
2019-05-21T09:47:55.017Z,11.10
2019-05-21T09:50:24.216Z,11.30
2019-05-21T09:52:53.516Z,11.50
2019-05-21T09:55:23.776Z,11.60
2019-05-21T09:58:01.669Z,11.80
2019-05-21T10:00:35.904Z,11.90
2019-05-21T10:03:12.428Z,11.80
2019-05-21T10:05:41.335Z,11.80
2019-05-21T10:08:16.968Z,11.80
2019-05-21T10:10:50.855Z,11.90
2019-05-21T10:13:20.689Z,12.00
2019-05-21T10:15:52.808Z,11.90
2019-05-21T10:18:24.497Z,11.90
2019-05-21T10:20:54.478Z,11.90
2019-05-21T10:23:26.425Z,11.70
2019-05-21T10:25:57.665Z,11.60
2019-05-21T10:28:27.169Z,11.50
2019-05-21T10:31:01.028Z,11.60
2019-05-21T10:33:30.503Z,11.70
2019-05-21T10:36:03.856Z,11.70
2019-05-21T10:38:35.909Z,11.60
2019-05-21T10:41:05.762Z,11.60
2019-05-21T10:43:36.659Z,11.60
2019-05-21T10:46:08.272Z,11.60
2019-05-21T10:48:39.139Z,11.40
2019-05-21T10:51:10.434Z,11.40
2019-05-21T10:53:41.102Z,11.20
2019-05-21T10:56:13.813Z,11.10
2019-05-21T10:58:49.133Z,11.20
2019-05-21T11:01:37.257Z,11.30
2019-05-21T11:04:11.817Z,11.30
2019-05-21T11:06:42.326Z,11.30
2019-05-21T11:09:22.325Z,11.40
2019-05-21T11:11:53.916Z,11.50
2019-05-21T11:14:29.457Z,11.50
2019-05-21T11:17:02.089Z,11.40
2019-05-21T11:19:31.858Z,11.50
2019-05-21T11:22:19.815Z,11.60
2019-05-21T11:24:48.594Z,11.60
2019-05-21T11:27:17.380Z,11.60
2019-05-21T11:29:46.144Z,11.70
2019-05-21T11:32:14.947Z,11.80
2019-05-21T11:34:43.708Z,11.90
2019-05-21T11:37:12.469Z,12.00
2019-05-21T11:39:41.681Z,12.00
2019-05-21T11:42:10.517Z,12.20
2019-05-21T11:44:39.412Z,12.10
2019-05-21T11:47:08.327Z,12.30
2019-05-21T11:49:37.105Z,12.40
2019-05-21T11:52:05.950Z,12.40
2019-05-21T11:54:34.661Z,12.40
2019-05-21T11:57:03.453Z,12.60
2019-05-21T11:59:32.220Z,12.80
2019-05-21T12:02:01.017Z,13.10
2019-05-21T12:04:29.735Z,13.00
2019-05-21T12:06:58.592Z,12.90
2019-05-21T12:09:27.310Z,12.80
2019-05-21T12:11:56.148Z,12.80
2019-05-21T12:14:24.871Z,12.90
2019-05-21T12:16:53.626Z,12.80
2019-05-21T12:19:22.429Z,12.90
2019-05-21T12:21:52.121Z,13.00
2019-05-21T12:24:20.912Z,13.00
2019-05-21T12:26:50.046Z,13.00
2019-05-21T12:29:18.858Z,13.10
2019-05-21T12:31:47.692Z,13.00
2019-05-21T12:34:16.526Z,13.10
2019-05-21T12:36:47.135Z,13.30
2019-05-21T12:39:18.634Z,13.30
2019-05-21T12:41:47.480Z,13.40
2019-05-21T12:44:16.269Z,13.50
2019-05-21T12:46:45.032Z,13.70
2019-05-21T12:49:14.141Z,13.90
2019-05-21T12:51:42.971Z,13.80
2019-05-21T12:54:12.027Z,13.90
2019-05-21T12:56:41.297Z,13.80
2019-05-21T12:59:10.203Z,13.80
2019-05-21T13:01:39.001Z,13.70
2019-05-21T13:04:07.764Z,14.10
2019-05-21T13:06:36.565Z,14.00
2019-05-21T13:09:08.095Z,13.90
2019-05-21T13:11:37.534Z,14.10
2019-05-21T13:14:06.358Z,14.10
2019-05-21T13:16:35.282Z,13.80
2019-05-21T13:19:04.424Z,13.90
2019-05-21T13:21:33.286Z,14.10
2019-05-21T13:24:02.064Z,14.10
2019-05-21T13:26:30.918Z,14.10
2019-05-21T13:28:59.727Z,14.10
2019-05-21T13:31:28.569Z,14.20
2019-05-21T13:33:57.344Z,14.00
2019-05-21T13:36:26.081Z,14.20
2019-05-21T13:38:55.075Z,14.30
2019-05-21T13:41:23.825Z,14.20
2019-05-21T13:43:52.628Z,14.10
2019-05-21T13:46:23.437Z,14.10
2019-05-21T13:48:52.153Z,14.20
2019-05-21T13:51:20.978Z,14.00
2019-05-21T13:53:50.083Z,14.00
2019-05-21T13:56:18.811Z,13.90
2019-05-21T13:58:47.617Z,14.00
2019-05-21T14:01:17.158Z,14.30
2019-05-21T14:03:45.890Z,14.50
2019-05-21T14:06:14.692Z,14.60
2019-05-21T14:08:43.828Z,14.40
2019-05-21T14:11:12.914Z,14.30
2019-05-21T14:13:41.785Z,14.40
2019-05-21T14:16:10.632Z,14.20
2019-05-21T14:18:39.717Z,14.30
2019-05-21T14:21:08.886Z,14.30
2019-05-21T14:23:37.729Z,14.40
2019-05-21T14:26:06.612Z,14.50
2019-05-21T14:28:35.391Z,14.70
2019-05-21T14:31:04.461Z,14.60
2019-05-21T14:33:33.398Z,14.40
2019-05-21T14:36:03.023Z,14.40
2019-05-21T14:38:31.796Z,14.30
2019-05-21T14:41:00.595Z,14.10
2019-05-21T14:43:29.813Z,14.30
2019-05-21T14:45:58.575Z,14.30
2019-05-21T14:48:27.377Z,14.30
2019-05-21T14:50:56.205Z,14.30
2019-05-21T14:53:24.932Z,14.40
2019-05-21T14:55:53.732Z,14.60
2019-05-21T14:58:22.565Z,14.60
2019-05-21T15:00:51.286Z,14.40
2019-05-21T15:03:25.124Z,14.20
2019-05-21T15:05:50.496Z,14.20
2019-05-21T15:08:19.221Z,14.10
2019-05-21T15:10:49.705Z,14.10
2019-05-21T15:13:18.757Z,14.00
2019-05-21T15:15:47.562Z,14.00
2019-05-21T15:18:21.340Z,14.00
2019-05-21T15:21:10.863Z,14.00
2019-05-21T15:23:40.846Z,13.90
2019-05-21T15:26:10.666Z,13.80
2019-05-21T15:28:39.401Z,13.90
2019-05-21T15:31:08.516Z,14.00
2019-05-21T15:33:37.665Z,14.10
2019-05-21T15:36:06.522Z,14.00
2019-05-21T15:38:49.545Z,14.00
2019-05-21T15:41:11.809Z,14.10
2019-05-21T15:43:36.192Z,14.20
2019-05-21T15:46:06.097Z,14.10
2019-05-21T15:48:34.941Z,14.10
2019-05-21T15:51:03.756Z,13.90
2019-05-21T15:53:32.554Z,13.90
2019-05-21T15:56:01.382Z,14.00
2019-05-21T15:58:30.217Z,14.10
2019-05-21T16:00:58.947Z,13.90
2019-05-21T16:03:28.070Z,13.80
2019-05-21T16:05:56.965Z,13.80
2019-05-21T16:08:26.165Z,13.80
2019-05-21T16:10:54.928Z,14.10
2019-05-21T16:13:23.657Z,14.30
2019-05-21T16:15:52.455Z,14.50
2019-05-21T16:18:21.273Z,14.50
2019-05-21T16:20:50.081Z,14.40
2019-05-21T16:23:18.826Z,14.40
2019-05-21T16:25:48.234Z,14.40
2019-05-21T16:28:17.065Z,14.40
2019-05-21T16:30:46.289Z,14.30
2019-05-21T16:33:15.572Z,14.30
2019-05-21T16:35:44.373Z,14.30
2019-05-21T16:38:13.553Z,14.20
2019-05-21T16:40:42.347Z,14.30
2019-05-21T16:43:12.119Z,14.60
2019-05-21T16:45:41.238Z,14.60
2019-05-21T16:48:10.640Z,14.40
2019-05-21T16:50:39.575Z,14.40
2019-05-21T16:53:08.384Z,14.40
2019-05-21T16:55:37.196Z,14.20
2019-05-21T16:58:06.131Z,14.30
2019-05-21T17:00:34.948Z,14.50
2019-05-21T17:03:04.072Z,14.60
2019-05-21T17:05:33.860Z,14.50
2019-05-21T17:08:02.604Z,14.50
2019-05-21T17:10:31.453Z,14.80
2019-05-21T17:13:00.259Z,14.70
2019-05-21T17:15:29.065Z,14.70
2019-05-21T17:17:58.272Z,14.60
2019-05-21T17:20:27.669Z,14.60
2019-05-21T17:22:56.443Z,14.50
2019-05-21T17:25:25.635Z,14.60
2019-05-21T17:27:54.438Z,14.60
2019-05-21T17:30:23.274Z,14.60
2019-05-21T17:32:52.298Z,14.40
2019-05-21T17:35:21.071Z,14.40
2019-05-21T17:37:49.852Z,14.20
2019-05-21T17:40:20.225Z,14.10
2019-05-21T17:42:49.384Z,14.10
2019-05-21T17:45:18.234Z,14.10
2019-05-21T17:47:47.256Z,14.00
2019-05-21T17:50:16.102Z,13.90
2019-05-21T17:52:44.943Z,13.80
2019-05-21T17:55:13.942Z,13.60
2019-05-21T17:57:43.862Z,13.70
2019-05-21T18:00:16.314Z,13.70
2019-05-21T18:02:45.640Z,13.60
2019-05-21T18:05:15.357Z,13.50
2019-05-21T18:07:44.164Z,13.40
2019-05-21T18:10:15.864Z,13.30
2019-05-21T18:12:44.909Z,13.20
2019-05-21T18:15:14.975Z,13.10
2019-05-21T18:17:44.710Z,12.90
2019-05-21T18:20:15.847Z,13.00
2019-05-21T18:22:45.813Z,12.90
2019-05-21T18:25:14.881Z,12.90
2019-05-21T18:27:43.710Z,12.90
2019-05-21T18:30:13.520Z,12.90
2019-05-21T18:32:42.668Z,12.70
2019-05-21T18:35:11.809Z,12.60
2019-05-21T18:37:40.723Z,12.60
2019-05-21T18:40:10.083Z,12.60
2019-05-21T18:42:39.715Z,12.60
2019-05-21T18:45:09.992Z,12.60
2019-05-21T18:47:39.170Z,12.60
2019-05-21T18:50:10.397Z,12.60
2019-05-21T18:52:39.229Z,12.60
2019-05-21T18:55:09.543Z,12.60
2019-05-21T18:57:38.387Z,12.60
2019-05-21T19:00:11.335Z,12.60
2019-05-21T19:02:41.950Z,12.60
2019-05-21T19:05:11.319Z,12.60
2019-05-21T19:07:40.423Z,12.60
2019-05-21T19:10:12.810Z,12.60
2019-05-21T19:12:42.002Z,12.70
2019-05-21T19:15:12.626Z,12.70
2019-05-21T19:17:41.823Z,12.70
2019-05-21T19:20:13.838Z,12.80
2019-05-21T19:22:42.681Z,12.70
2019-05-21T19:25:11.981Z,12.60
2019-05-21T19:27:42.473Z,12.60
2019-05-21T19:30:12.570Z,12.60
2019-05-21T19:32:41.414Z,12.60
2019-05-21T19:35:11.318Z,12.40
2019-05-21T19:37:40.146Z,12.20
2019-05-21T19:40:10.988Z,12.20
2019-05-21T19:42:53.957Z,12.10
2019-05-21T19:45:10.953Z,12.00
2019-05-21T19:47:39.940Z,11.80
2019-05-21T19:50:09.906Z,11.70
2019-05-21T19:52:38.783Z,11.60
2019-05-21T19:55:07.886Z,11.50
2019-05-21T19:57:38.515Z,11.40
2019-05-21T20:00:11.950Z,11.40
2019-05-21T20:02:42.013Z,11.40
2019-05-21T20:05:11.106Z,11.30
2019-05-21T20:07:39.928Z,11.30
2019-05-21T20:10:09.736Z,11.30
2019-05-21T20:12:38.564Z,11.20
2019-05-21T20:15:08.163Z,11.20
2019-05-21T20:17:38.921Z,11.10
2019-05-21T20:20:10.631Z,11.00
2019-05-21T20:22:41.171Z,10.90
2019-05-21T20:25:10.973Z,10.80
2019-05-21T20:27:40.308Z,10.80
2019-05-21T20:30:13.037Z,10.70
2019-05-21T20:32:43.183Z,10.70
2019-05-21T20:35:14.441Z,10.60
2019-05-21T20:37:45.161Z,10.50
2019-05-21T20:40:14.988Z,10.50
2019-05-21T20:42:45.141Z,10.40
2019-05-21T20:45:15.776Z,10.40
2019-05-21T20:47:46.194Z,10.40
2019-05-21T20:50:17.115Z,10.40
2019-05-21T20:52:46.598Z,10.50
2019-05-21T20:55:17.346Z,10.50
2019-05-21T20:57:47.587Z,10.50
2019-05-21T21:00:40.206Z,10.50
2019-05-21T21:03:11.277Z,10.40
2019-05-21T21:05:40.280Z,10.50
2019-05-21T21:08:11.055Z,10.40
2019-05-21T21:10:40.007Z,10.30
2019-05-21T21:13:11.576Z,10.30
2019-05-21T21:15:40.382Z,10.20
2019-05-21T21:18:10.619Z,10.20
2019-05-21T21:20:39.613Z,10.10
2019-05-21T21:23:08.545Z,10.10
2019-05-21T21:25:37.406Z,10.00
2019-05-21T21:28:07.025Z,9.90
2019-05-21T21:30:36.527Z,9.90
2019-05-21T21:33:07.273Z,9.80
2019-05-21T21:35:36.473Z,9.80
2019-05-21T21:38:06.992Z,9.70
2019-05-21T21:40:36.116Z,9.70
2019-05-21T21:43:07.977Z,9.70
2019-05-21T21:45:36.607Z,9.70
2019-05-21T21:48:06.306Z,9.70
2019-05-21T21:50:36.662Z,9.70
2019-05-21T21:53:05.701Z,9.70
2019-05-21T21:55:34.530Z,9.70
2019-05-21T21:58:03.403Z,9.70
2019-05-21T22:00:42.996Z,9.80
2019-05-21T22:03:13.338Z,9.80
2019-05-21T22:05:42.889Z,9.80
2019-05-21T22:08:12.786Z,9.80
2019-05-21T22:10:45.693Z,9.70
2019-05-21T22:13:15.608Z,9.70
2019-05-21T22:15:44.703Z,9.70
2019-05-21T22:18:14.451Z,9.60
2019-05-21T22:20:43.546Z,9.50
2019-05-21T22:23:12.854Z,9.40
2019-05-21T22:25:41.698Z,9.30
2019-05-21T22:28:10.775Z,9.30
2019-05-21T22:30:40.376Z,9.30
2019-05-21T22:33:09.717Z,9.20
2019-05-21T22:35:38.511Z,9.20
2019-05-21T22:38:07.299Z,9.10
2019-05-21T22:40:36.328Z,9.10
2019-05-21T22:43:05.131Z,9.00
2019-05-21T22:45:33.983Z,8.90
2019-05-21T22:48:02.833Z,8.90
2019-05-21T22:50:31.940Z,8.80
2019-05-21T22:53:00.983Z,8.70
2019-05-21T22:55:29.715Z,8.70
2019-05-21T22:57:58.584Z,8.60
2019-05-21T23:00:27.381Z,8.50
2019-05-21T23:02:56.390Z,8.50
2019-05-21T23:05:25.175Z,8.40
2019-05-21T23:07:54.930Z,8.30
2019-05-21T23:10:24.539Z,8.30
2019-05-21T23:12:53.698Z,8.20
2019-05-21T23:15:25.403Z,8.20
2019-05-21T23:17:54.448Z,8.10
2019-05-21T23:20:25.304Z,8.10
2019-05-21T23:22:55.666Z,8.00
2019-05-21T23:25:25.423Z,8.00
2019-05-21T23:27:54.321Z,7.90
2019-05-21T23:30:23.390Z,7.90
2019-05-21T23:32:52.995Z,7.90
2019-05-21T23:35:22.332Z,7.90
2019-05-21T23:37:51.864Z,7.80
2019-05-21T23:40:22.564Z,7.80
2019-05-21T23:42:51.566Z,7.80
2019-05-21T23:45:22.973Z,7.70
2019-05-21T23:47:51.767Z,7.70
2019-05-21T23:50:20.738Z,7.70
2019-05-21T23:52:51.210Z,7.60
2019-05-21T23:55:20.049Z,7.60
2019-05-21T23:57:49.160Z,7.50
